Time;durP1;ratioP1;P1;durP2;ratioP2;P2;SDS_P1;SDS_P2;PMS_P1;PMS_P2;Temp;Humidity;BMP_temperature;BMP_pressure;BME280_temperature;BME280_humidity;BME280_pressure;Samples;Min_cycle;Max_cycle;Signal;HPM_P1;HPM_P2
2022/05/31 00:00:26;;;;;;;3.20;1.08;;;;;;;;;;7391874;19;20016;-77
2022/05/31 00:02:56;;;;;;;1.48;0.80;;;;;;;;;;7389140;19;20019;-76
2022/05/31 00:05:22;;;;;;;1.10;1.00;;;;;;;;;;7390654;19;20021;-76
2022/05/31 00:07:47;;;;;;;0.90;0.90;;;;;;;;;;7388256;19;20061;-78
2022/05/31 00:10:14;;;;;;;1.08;0.95;;;;;;;;;;7388335;19;20011;-77
2022/05/31 00:12:41;;;;;;;0.70;0.70;;;;;;;;;;7389476;19;20015;-76
2022/05/31 00:15:07;;;;;;;0.90;0.70;;;;;;;;;;7389248;19;20011;-76
2022/05/31 00:17:33;;;;;;;0.73;0.70;;;;;;;;;;7388381;19;20488;-77
2022/05/31 00:19:59;;;;;;;1.15;0.90;;;;;;;;;;7390793;19;20010;-77
2022/05/31 00:22:26;;;;;;;1.30;0.70;;;;;;;;;;7389284;19;20035;-77
2022/05/31 00:24:51;;;;;;;0.55;0.50;;;;;;;;;;7389515;19;20104;-77
2022/05/31 00:27:19;;;;;;;2.22;0.80;;;;;;;;;;7386697;19;20026;-77
2022/05/31 00:29:47;;;;;;;1.33;0.95;;;;;;;;;;7388990;19;20014;-76
2022/05/31 00:32:15;;;;;;;0.85;0.82;;;;;;;;;;7388705;19;20066;-77
2022/05/31 00:34:44;;;;;;;3.10;0.90;;;;;;;;;;7405463;19;20015;-78
2022/05/31 00:37:10;;;;;;;0.98;0.93;;;;;;;;;;7387765;19;20010;-77
2022/05/31 00:39:36;;;;;;;0.68;0.68;;;;;;;;;;7388977;19;20297;-77
2022/05/31 00:42:11;;;;;;;0.60;0.60;;;;;;;;;;7388996;19;20014;-77
2022/05/31 00:44:37;;;;;;;;;;;;;;;;;;7389154;19;20101;-77
2022/05/31 00:47:16;;;;;;;0.55;0.50;;;;;;;;;;7382800;19;19922;-77
2022/05/31 00:49:47;;;;;;;0.68;0.63;;;;;;;;;;7391012;19;20003;-76
2022/05/31 00:52:17;;;;;;;1.20;1.10;;;;;;;;;;7389008;19;20021;-77
2022/05/31 00:54:54;;;;;;;2.38;0.95;;;;;;;;;;7390294;19;20009;-77
2022/05/31 00:57:20;;;;;;;1.83;1.00;;;;;;;;;;7385617;19;20571;-76
2022/05/31 00:59:53;;;;;;;1.17;0.80;;;;;;;;;;7391023;19;20602;-76
2022/05/31 01:02:19;;;;;;;0.60;0.60;;;;;;;;;;7386688;19;20014;-77
2022/05/31 01:04:49;;;;;;;1.77;0.80;;;;;;;;;;7388570;19;20013;-76
2022/05/31 01:07:16;;;;;;;0.90;0.70;;;;;;;;;;7387956;19;20313;-75
2022/05/31 01:09:41;;;;;;;1.38;0.93;;;;;;;;;;7389297;19;20006;-76
2022/05/31 01:12:07;;;;;;;1.45;0.90;;;;;;;;;;7387541;19;20036;-77
2022/05/31 01:14:33;;;;;;;1.10;1.00;;;;;;;;;;7389936;19;20439;-77
2022/05/31 01:17:04;;;;;;;2.00;0.70;;;;;;;;;;7384490;19;20014;-77
2022/05/31 01:22:16;;;;;;;2.45;1.10;;;;;;;;;;7403342;19;20013;-77
2022/05/31 01:25:01;;;;;;;0.70;0.70;;;;;;;;;;7395314;19;20412;-77
2022/05/31 01:27:44;;;;;;;1.35;0.80;;;;;;;;;;7391504;19;20015;-76
2022/05/31 01:30:10;;;;;;;2.38;0.63;;;;;;;;;;7395784;19;20078;-77
2022/05/31 01:32:41;;;;;;;1.08;0.98;;;;;;;;;;7396746;19;20057;-77
2022/05/31 01:35:14;;;;;;;0.95;0.90;;;;;;;;;;7394831;19;20022;-77
2022/05/31 01:37:53;;;;;;;1.65;0.77;;;;;;;;;;7390613;19;20003;-77
2022/05/31 01:40:26;;;;;;;0.60;0.60;;;;;;;;;;7396967;19;20425;-77
2022/05/31 01:42:52;;;;;;;0.63;0.63;;;;;;;;;;7395026;19;20003;-77
2022/05/31 01:45:27;;;;;;;0.90;0.70;;;;;;;;;;7393332;19;20088;-76
2022/05/31 01:47:59;;;;;;;1.23;1.05;;;;;;;;;;7395192;19;20014;-77
2022/05/31 01:50:25;;;;;;;0.70;0.70;;;;;;;;;;7396543;19;20014;-77
2022/05/31 01:52:51;;;;;;;0.70;0.70;;;;;;;;;;7392717;19;20385;-77
2022/05/31 01:55:17;;;;;;;2.85;0.98;;;;;;;;;;7394855;19;20011;-77
2022/05/31 01:57:47;;;;;;;0.80;0.80;;;;;;;;;;7391676;19;20066;-77
2022/05/31 02:00:13;;;;;;;0.80;0.80;;;;;;;;;;7394464;19;20023;-77
2022/05/31 02:02:39;;;;;;;0.70;0.70;;;;;;;;;;7392648;19;20010;-77
2022/05/31 02:05:05;;;;;;;1.98;0.90;;;;;;;;;;7396199;19;20022;-77
2022/05/31 02:07:31;;;;;;;0.93;0.93;;;;;;;;;;7392153;19;20352;-77
2022/05/31 02:09:57;;;;;;;2.35;0.70;;;;;;;;;;7415506;19;20007;-75
2022/05/31 02:12:24;;;;;;;1.10;0.80;;;;;;;;;;7420998;19;20028;-76
2022/05/31 02:14:49;;;;;;;1.13;1.02;;;;;;;;;;7421813;19;20014;-77
2022/05/31 02:17:18;;;;;;;0.80;0.80;;;;;;;;;;7416162;19;20035;-76
2022/05/31 02:19:44;;;;;;;1.95;0.90;;;;;;;;;;7408851;19;20011;-77
2022/05/31 02:22:13;;;;;;;1.13;0.73;;;;;;;;;;7394123;19;20018;-77
2022/05/31 02:24:39;;;;;;;1.50;0.77;;;;;;;;;;7396075;19;20336;-77
2022/05/31 02:27:05;;;;;;;1.23;1.13;;;;;;;;;;7387559;19;20424;-77
2022/05/31 02:29:34;;;;;;;1.27;0.95;;;;;;;;;;7392356;19;20126;-77
2022/05/31 02:32:01;;;;;;;1.02;0.90;;;;;;;;;;7391324;19;20331;-78
2022/05/31 02:34:32;;;;;;;1.95;0.90;;;;;;;;;;7395729;19;20042;-75
2022/05/31 02:36:57;;;;;;;0.93;0.82;;;;;;;;;;7390787;19;20023;-77
2022/05/31 02:39:23;;;;;;;1.58;0.90;;;;;;;;;;7393278;19;20014;-77
2022/05/31 02:41:48;;;;;;;1.35;0.80;;;;;;;;;;7391745;19;19998;-78
2022/05/31 02:44:14;;;;;;;1.05;0.80;;;;;;;;;;7394276;19;20019;-77
2022/05/31 02:46:40;;;;;;;4.35;0.90;;;;;;;;;;7390478;19;20021;-77
2022/05/31 02:49:06;;;;;;;1.20;1.10;;;;;;;;;;7397286;19;20007;-78
2022/05/31 02:51:41;;;;;;;1.00;0.85;;;;;;;;;;7393663;19;20130;-77
2022/05/31 02:54:07;;;;;;;1.08;0.95;;;;;;;;;;7392999;19;20036;-77
2022/05/31 02:56:32;;;;;;;1.45;0.88;;;;;;;;;;7388405;19;20126;-77
2022/05/31 02:58:58;;;;;;;1.35;1.00;;;;;;;;;;7389958;19;20468;-76
2022/05/31 03:01:28;;;;;;;2.78;1.00;;;;;;;;;;7390772;19;20042;-77
2022/05/31 03:03:54;;;;;;;1.05;0.98;;;;;;;;;;7392033;19;20007;-76
2022/05/31 03:06:20;;;;;;;1.60;1.10;;;;;;;;;;7392262;19;20003;-77
2022/05/31 03:08:46;;;;;;;2.85;0.90;;;;;;;;;;7389381;19;20043;-77
2022/05/31 03:11:46;;;;;;;1.13;0.73;;;;;;;;;;7392435;19;20322;-77
2022/05/31 03:14:20;;;;;;;0.80;0.80;;;;;;;;;;7390341;19;20017;-75
2022/05/31 03:16:50;;;;;;;1.15;0.90;;;;;;;;;;7390196;19;20010;-77
2022/05/31 03:19:20;;;;;;;1.65;1.15;;;;;;;;;;7392501;19;20031;-76
2022/05/31 03:21:53;;;;;;;2.92;1.17;;;;;;;;;;7406723;19;20017;-78
2022/05/31 03:24:23;;;;;;;1.23;1.13;;;;;;;;;;7392333;19;20038;-78
2022/05/31 03:26:51;;;;;;;1.77;1.42;;;;;;;;;;7387487;19;20089;-77
2022/05/31 03:29:17;;;;;;;2.38;0.93;;;;;;;;;;7392372;19;20031;-77
2022/05/31 03:31:42;;;;;;;0.77;0.77;;;;;;;;;;7386243;19;20126;-77
2022/05/31 03:34:08;;;;;;;2.10;1.10;;;;;;;;;;7381611;19;20010;-79
2022/05/31 03:36:33;;;;;;;2.55;1.40;;;;;;;;;;7391235;19;20015;-76
2022/05/31 03:38:59;;;;;;;1.25;0.90;;;;;;;;;;7389061;19;20007;-76
2022/05/31 03:41:24;;;;;;;2.78;1.20;;;;;;;;;;7389311;19;20070;-79
2022/05/31 03:43:50;;;;;;;1.15;1.02;;;;;;;;;;7394503;19;20019;-78
2022/05/31 03:46:16;;;;;;;1.48;0.90;;;;;;;;;;7391745;19;20026;-78
2022/05/31 03:48:42;;;;;;;1.17;1.00;;;;;;;;;;7394033;19;20074;-78
2022/05/31 03:51:10;;;;;;;1.55;1.05;;;;;;;;;;7398244;19;20031;-79
2022/05/31 03:53:36;;;;;;;5.32;1.40;;;;;;;;;;7399012;19;20031;-79
2022/05/31 03:56:04;;;;;;;0.90;0.90;;;;;;;;;;7393168;19;20014;-80
2022/05/31 03:58:31;;;;;;;1.33;0.90;;;;;;;;;;7397690;19;20010;-78
2022/05/31 04:00:57;;;;;;;1.60;1.20;;;;;;;;;;7396222;19;20035;-79
2022/05/31 04:03:22;;;;;;;1.77;1.15;;;;;;;;;;7399620;19;20006;-79
2022/05/31 04:05:49;;;;;;;0.77;0.77;;;;;;;;;;7400504;19;20007;-78
2022/05/31 04:08:14;;;;;;;2.05;1.17;;;;;;;;;;7395004;19;20014;-77
2022/05/31 04:10:42;;;;;;;1.60;0.90;;;;;;;;;;7389265;19;20006;-76
2022/05/31 04:13:07;;;;;;;0.80;0.80;;;;;;;;;;7396895;19;20423;-77
2022/05/31 04:15:33;;;;;;;2.60;1.20;;;;;;;;;;7393749;19;20014;-78
2022/05/31 04:17:59;;;;;;;1.33;1.10;;;;;;;;;;7391622;19;20041;-77
2022/05/31 04:20:25;;;;;;;2.58;1.05;;;;;;;;;;7392816;19;20013;-77
2022/05/31 04:22:50;;;;;;;2.50;1.10;;;;;;;;;;7385333;19;20012;-78
2022/05/31 04:25:16;;;;;;;3.20;1.17;;;;;;;;;;7392450;19;20010;-77
2022/05/31 04:27:41;;;;;;;3.60;1.20;;;;;;;;;;7385712;19;20023;-77
2022/05/31 04:30:07;;;;;;;0.95;0.90;;;;;;;;;;7391915;19;20539;-78
2022/05/31 04:32:32;;;;;;;1.15;1.00;;;;;;;;;;7393522;19;20034;-77
2022/05/31 04:34:58;;;;;;;1.38;1.00;;;;;;;;;;7396199;19;20036;-77
2022/05/31 04:37:23;;;;;;;1.20;1.10;;;;;;;;;;7392194;19;19999;-78
2022/05/31 04:39:48;;;;;;;1.35;1.08;;;;;;;;;;7390246;19;20026;-77
2022/05/31 04:42:14;;;;;;;1.65;1.17;;;;;;;;;;7389500;19;20115;-76
2022/05/31 04:44:39;;;;;;;1.08;0.80;;;;;;;;;;7388998;19;20006;-76
2022/05/31 04:47:07;;;;;;;2.55;1.10;;;;;;;;;;7384750;19;20013;-78
2022/05/31 04:49:33;;;;;;;1.20;1.10;;;;;;;;;;7390490;19;20010;-76
2022/05/31 04:51:59;;;;;;;3.05;1.10;;;;;;;;;;7397422;19;20122;-77
2022/05/31 04:54:27;;;;;;;1.67;1.20;;;;;;;;;;7402465;19;20421;-77
2022/05/31 04:56:53;;;;;;;1.10;1.00;;;;;;;;;;7394235;19;20010;-77
2022/05/31 04:59:19;;;;;;;1.30;1.10;;;;;;;;;;7397597;19;20003;-77
2022/05/31 05:01:45;;;;;;;1.50;1.13;;;;;;;;;;7405229;19;20006;-78
2022/05/31 05:04:10;;;;;;;1.30;1.00;;;;;;;;;;7405782;19;20023;-78
2022/05/31 05:06:36;;;;;;;1.05;0.82;;;;;;;;;;7401924;19;20018;-76
2022/05/31 05:09:01;;;;;;;2.30;1.10;;;;;;;;;;7409354;19;20025;-77
2022/05/31 05:11:27;;;;;;;1.05;0.82;;;;;;;;;;7402457;19;20021;-79
2022/05/31 05:13:54;;;;;;;3.22;0.80;;;;;;;;;;7394932;19;20006;-77
2022/05/31 05:16:20;;;;;;;1.60;1.02;;;;;;;;;;7397604;19;20018;-77
2022/05/31 05:18:45;;;;;;;1.05;0.95;;;;;;;;;;7407021;19;20010;-77
2022/05/31 05:21:12;;;;;;;0.70;0.70;;;;;;;;;;7402104;19;20013;-78
2022/05/31 05:23:38;;;;;;;2.30;1.10;;;;;;;;;;7396884;19;20006;-78
2022/05/31 05:26:04;;;;;;;1.85;1.27;;;;;;;;;;7398993;19;20355;-77
2022/05/31 05:31:24;;;;;;;1.30;1.10;;;;;;;;;;7400195;19;20020;-79
2022/05/31 05:33:50;;;;;;;1.05;0.95;;;;;;;;;;7406118;19;20006;-78
2022/05/31 05:36:16;;;;;;;1.10;1.00;;;;;;;;;;7404108;19;20025;-79
2022/05/31 05:38:42;;;;;;;1.08;0.98;;;;;;;;;;7404537;19;20011;-78
2022/05/31 05:41:07;;;;;;;1.13;1.02;;;;;;;;;;7405488;19;20032;-77
2022/05/31 05:43:33;;;;;;;1.35;0.90;;;;;;;;;;7402738;19;20476;-78
2022/05/31 05:45:58;;;;;;;1.70;1.35;;;;;;;;;;7403654;19;20066;-78
2022/05/31 05:48:23;;;;;;;1.58;1.00;;;;;;;;;;7405499;19;20014;-79
2022/05/31 05:50:48;;;;;;;1.35;0.90;;;;;;;;;;7408148;19;19994;-79
2022/05/31 05:53:14;;;;;;;1.45;1.00;;;;;;;;;;7406117;19;20003;-78
2022/05/31 05:55:39;;;;;;;1.05;0.98;;;;;;;;;;7405867;19;20010;-79
2022/05/31 05:58:09;;;;;;;2.92;1.00;;;;;;;;;;7404186;19;20006;-78
2022/05/31 06:00:42;;;;;;;1.10;1.00;;;;;;;;;;7404837;19;20099;-76
2022/05/31 06:03:20;;;;;;;1.02;1.00;;;;;;;;;;7395044;19;20070;-78
2022/05/31 06:05:47;;;;;;;1.63;1.27;;;;;;;;;;7408337;19;20014;-78
2022/05/31 06:08:20;;;;;;;3.50;1.15;;;;;;;;;;7404281;19;20078;-78
2022/05/31 06:11:37;;;;;;;1.42;1.10;;;;;;;;;;7397738;19;20018;-78
2022/05/31 06:14:20;;;;;;;2.97;1.02;;;;;;;;;;7399781;19;20111;-78
2022/05/31 06:17:00;;;;;;;1.38;1.00;;;;;;;;;;7397633;19;20007;-78
2022/05/31 06:19:31;;;;;;;0.90;0.90;;;;;;;;;;7396640;19;20494;-79
2022/05/31 06:21:58;;;;;;;1.10;0.95;;;;;;;;;;7397103;19;20114;-78
2022/05/31 06:24:27;;;;;;;1.10;1.00;;;;;;;;;;7397639;19;20015;-77
2022/05/31 06:26:52;;;;;;;3.15;1.00;;;;;;;;;;7393149;19;20023;-79
2022/05/31 06:29:17;;;;;;;0.82;0.82;;;;;;;;;;7398506;19;20816;-78
2022/05/31 06:31:42;;;;;;;1.08;1.00;;;;;;;;;;7394628;19;20329;-79
2022/05/31 06:34:08;;;;;;;3.35;1.20;;;;;;;;;;7398245;19;20015;-78
2022/05/31 06:36:33;;;;;;;5.63;1.25;;;;;;;;;;7396649;19;20019;-78
2022/05/31 06:38:58;;;;;;;0.95;0.95;;;;;;;;;;7396241;19;20011;-79
2022/05/31 06:41:24;;;;;;;1.90;1.35;;;;;;;;;;7396688;19;20007;-78
2022/05/31 06:43:49;;;;;;;2.08;1.33;;;;;;;;;;7398232;19;20352;-79
2022/05/31 06:46:15;;;;;;;1.30;1.20;;;;;;;;;;7389525;19;20022;-78
2022/05/31 06:48:40;;;;;;;1.30;1.08;;;;;;;;;;7399479;19;20465;-78
2022/05/31 06:51:08;;;;;;;1.35;1.02;;;;;;;;;;7398027;19;20455;-77
2022/05/31 06:59:02;;;;;;;2.63;0.90;;;;;;;;;;7396497;19;20091;-79
2022/05/31 07:01:31;;;;;;;1.02;0.93;;;;;;;;;;7396647;19;20006;-78
2022/05/31 07:03:59;;;;;;;0.90;0.90;;;;;;;;;;7398459;19;19997;-79
2022/05/31 07:06:24;;;;;;;1.63;0.90;;;;;;;;;;7395387;19;19999;-79
2022/05/31 07:08:49;;;;;;;1.40;1.00;;;;;;;;;;7399474;19;20029;-79
2022/05/31 07:11:15;;;;;;;1.10;0.95;;;;;;;;;;7398967;19;20006;-79
2022/05/31 07:13:40;;;;;;;1.10;0.90;;;;;;;;;;7408392;19;20109;-78
2022/05/31 07:16:05;;;;;;;0.80;0.80;;;;;;;;;;7399293;19;20002;-78
2022/05/31 07:18:30;;;;;;;1.35;1.10;;;;;;;;;;7394075;19;20532;-79
2022/05/31 07:20:56;;;;;;;0.80;0.80;;;;;;;;;;7398407;19;20028;-79
2022/05/31 07:23:21;;;;;;;1.70;1.10;;;;;;;;;;7391583;19;20018;-79
2022/05/31 07:25:46;;;;;;;4.55;1.00;;;;;;;;;;7397976;19;20005;-79
2022/05/31 07:28:12;;;;;;;1.70;0.88;;;;;;;;;;7397970;19;20428;-79
2022/05/31 07:30:38;;;;;;;2.42;0.90;;;;;;;;;;7397599;19;20668;-78
2022/05/31 07:33:03;;;;;;;0.75;0.75;;;;;;;;;;7396995;19;20018;-79
2022/05/31 07:35:29;;;;;;;0.80;0.80;;;;;;;;;;7395839;19;20006;-78
2022/05/31 07:37:54;;;;;;;0.63;0.60;;;;;;;;;;7396672;19;20003;-78
2022/05/31 07:40:19;;;;;;;1.45;0.90;;;;;;;;;;7397806;19;20092;-79
2022/05/31 07:42:45;;;;;;;1.15;0.68;;;;;;;;;;7395788;19;20003;-80
2022/05/31 07:45:11;;;;;;;0.70;0.63;;;;;;;;;;7397827;19;20031;-79
2022/05/31 07:47:36;;;;;;;2.88;0.90;;;;;;;;;;7398527;19;20018;-80
2022/05/31 07:50:02;;;;;;;0.98;0.70;;;;;;;;;;7399840;19;20332;-79
2022/05/31 07:52:27;;;;;;;1.00;0.90;;;;;;;;;;7391888;19;20013;-79
2022/05/31 07:54:53;;;;;;;0.70;0.70;;;;;;;;;;7391962;19;20011;-79
2022/05/31 08:00:04;;;;;;;0.70;0.70;;;;;;;;;;7390863;19;20661;-79
2022/05/31 08:02:29;;;;;;;2.00;0.80;;;;;;;;;;7389028;19;20015;-77
2022/05/31 08:04:54;;;;;;;0.70;0.52;;;;;;;;;;7389812;19;20010;-77
2022/05/31 08:07:20;;;;;;;0.93;0.80;;;;;;;;;;7387015;19;20003;-78
2022/05/31 08:09:45;;;;;;;1.15;0.68;;;;;;;;;;7389299;19;20007;-77
2022/05/31 08:12:11;;;;;;;1.35;0.85;;;;;;;;;;7392604;19;20017;-77
2022/05/31 08:14:37;;;;;;;2.13;0.60;;;;;;;;;;7389896;19;20002;-78
2022/05/31 08:17:03;;;;;;;1.38;0.73;;;;;;;;;;7389745;19;20047;-78
2022/05/31 08:19:29;;;;;;;0.77;0.77;;;;;;;;;;7390045;19;20330;-78
2022/05/31 08:21:55;;;;;;;2.35;1.02;;;;;;;;;;7389123;19;20014;-78
2022/05/31 08:24:20;;;;;;;1.65;0.73;;;;;;;;;;7389141;19;20010;-77
2022/05/31 08:26:46;;;;;;;1.88;1.00;;;;;;;;;;7384816;19;20002;-77
2022/05/31 08:29:11;;;;;;;1.48;0.80;;;;;;;;;;7388915;19;20431;-77
2022/05/31 08:31:37;;;;;;;1.08;0.90;;;;;;;;;;7389188;19;20014;-77
2022/05/31 08:34:04;;;;;;;0.98;0.75;;;;;;;;;;7391457;19;20013;-77
2022/05/31 08:36:29;;;;;;;0.68;0.60;;;;;;;;;;7378602;19;20040;-77
2022/05/31 08:38:55;;;;;;;1.60;0.70;;;;;;;;;;7384653;19;19999;-79
2022/05/31 08:41:31;;;;;;;0.98;0.68;;;;;;;;;;7390710;19;20007;-77
2022/05/31 08:44:03;;;;;;;0.93;0.63;;;;;;;;;;7386662;19;20002;-77
2022/05/31 08:46:57;;;;;;;0.65;0.60;;;;;;;;;;7385549;19;20007;-76
2022/05/31 08:53:07;;;;;;;1.30;0.80;;;;;;;;;;7387931;19;19993;-77
2022/05/31 08:58:40;;;;;;;0.70;0.60;;;;;;;;;;7394424;19;20021;-78
2022/05/31 09:01:06;;;;;;;1.80;0.75;;;;;;;;;;7385140;19;20010;-79
2022/05/31 09:03:41;;;;;;;1.17;0.80;;;;;;;;;;7390158;19;20010;-77
2022/05/31 09:06:10;;;;;;;0.65;0.65;;;;;;;;;;7395202;19;20010;-79
2022/05/31 09:08:42;;;;;;;1.13;0.60;;;;;;;;;;7399060;19;20066;-78
2022/05/31 09:11:26;;;;;;;0.75;0.68;;;;;;;;;;7395864;19;19999;-78
2022/05/31 09:14:00;;;;;;;1.17;0.80;;;;;;;;;;7399094;19;20014;-78
2022/05/31 09:16:51;;;;;;;0.95;0.70;;;;;;;;;;7419154;19;20013;-79
2022/05/31 09:19:23;;;;;;;1.10;0.68;;;;;;;;;;7414229;19;20010;-77
2022/05/31 09:21:50;;;;;;;1.38;0.90;;;;;;;;;;7421453;19;20035;-76
2022/05/31 09:24:17;;;;;;;1.15;1.00;;;;;;;;;;7409712;19;20014;-77
2022/05/31 09:27:08;;;;;;;0.93;0.68;;;;;;;;;;7402838;19;20015;-77
2022/05/31 09:29:58;;;;;;;0.70;0.50;;;;;;;;;;7403910;19;20432;-77
2022/05/31 09:33:04;;;;;;;4.70;0.65;;;;;;;;;;7402942;19;20011;-78
2022/05/31 09:35:57;;;;;;;0.73;0.60;;;;;;;;;;7386570;19;20146;-76
2022/05/31 09:38:48;;;;;;;0.70;0.60;;;;;;;;;;7388953;19;20085;-76
2022/05/31 09:41:31;;;;;;;0.70;0.63;;;;;;;;;;7391938;19;20020;-77
2022/05/31 09:44:12;;;;;;;1.15;0.57;;;;;;;;;;7394797;19;20125;-77
2022/05/31 09:46:43;;;;;;;0.63;0.45;;;;;;;;;;7392299;19;20139;-76
2022/05/31 09:49:37;;;;;;;4.35;0.70;;;;;;;;;;7392630;19;20252;-77
2022/05/31 09:52:42;;;;;;;3.70;0.77;;;;;;;;;;7391064;19;20011;-77
2022/05/31 09:58:23;;;;;;;1.23;0.47;;;;;;;;;;7391039;19;20047;-77
2022/05/31 10:01:12;;;;;;;0.65;0.65;;;;;;;;;;7392047;19;20002;-77
2022/05/31 10:03:44;;;;;;;0.80;0.60;;;;;;;;;;7397364;19;20014;-77
2022/05/31 10:06:14;;;;;;;0.75;0.60;;;;;;;;;;7398426;19;20011;-78
2022/05/31 10:08:40;;;;;;;0.47;0.47;;;;;;;;;;7400792;19;20014;-78
2022/05/31 10:11:11;;;;;;;0.65;0.43;;;;;;;;;;7386536;19;20487;-78
2022/05/31 10:13:40;;;;;;;0.60;0.60;;;;;;;;;;7391801;19;20003;-79
2022/05/31 10:16:19;;;;;;;1.10;0.68;;;;;;;;;;7395116;19;20007;-78
2022/05/31 10:18:49;;;;;;;1.27;0.80;;;;;;;;;;7396013;19;20014;-78
2022/05/31 10:21:26;;;;;;;0.70;0.70;;;;;;;;;;7395225;19;20017;-77
2022/05/31 10:23:51;;;;;;;4.00;0.60;;;;;;;;;;7393802;19;20002;-77
2022/05/31 10:26:32;;;;;;;1.55;0.70;;;;;;;;;;7391075;19;20078;-77
2022/05/31 10:29:07;;;;;;;1.05;0.65;;;;;;;;;;7394713;19;20050;-78
2022/05/31 10:31:41;;;;;;;0.82;0.50;;;;;;;;;;7387751;19;20018;-77
2022/05/31 10:34:47;;;;;;;0.57;0.57;;;;;;;;;;7390937;19;20014;-78
2022/05/31 10:37:32;;;;;;;1.73;0.88;;;;;;;;;;7387109;19;20476;-77
2022/05/31 10:40:03;;;;;;;0.50;0.50;;;;;;;;;;7394257;19;20081;-77
2022/05/31 10:42:32;;;;;;;0.70;0.40;;;;;;;;;;7394766;19;20027;-77
2022/05/31 10:45:02;;;;;;;2.80;0.70;;;;;;;;;;7394711;19;20009;-77
2022/05/31 10:47:28;;;;;;;1.63;0.60;;;;;;;;;;7388066;19;20002;-77
2022/05/31 10:49:53;;;;;;;2.28;0.80;;;;;;;;;;7397884;19;20078;-77
2022/05/31 10:52:46;;;;;;;0.70;0.52;;;;;;;;;;7394385;19;20066;-78
2022/05/31 10:55:33;;;;;;;0.60;0.60;;;;;;;;;;7388327;19;20006;-77
2022/05/31 10:58:11;;;;;;;0.85;0.63;;;;;;;;;;7394864;19;20036;-77
2022/05/31 11:00:58;;;;;;;2.22;0.57;;;;;;;;;;7394526;19;20006;-78
2022/05/31 11:03:26;;;;;;;3.35;0.80;;;;;;;;;;7396092;19;19999;-78
2022/05/31 11:06:50;;;;;;;1.35;0.82;;;;;;;;;;7402962;19;20034;-78
2022/05/31 11:12:44;;;;;;;1.40;0.40;;;;;;;;;;7400512;19;20042;-80
2022/05/31 11:16:12;;;;;;;1.05;0.70;;;;;;;;;;7400974;19;20010;-80
2022/05/31 11:18:46;;;;;;;0.88;0.40;;;;;;;;;;7395031;19;20006;-80
2022/05/31 11:21:17;;;;;;;0.50;0.50;;;;;;;;;;7397976;19;20759;-79
2022/05/31 11:24:11;;;;;;;1.10;0.68;;;;;;;;;;7400445;19;20154;-80
2022/05/31 11:26:51;;;;;;;1.60;0.70;;;;;;;;;;7397410;19;20536;-79
2022/05/31 11:29:25;;;;;;;1.05;0.60;;;;;;;;;;7392920;19;20095;-78
2022/05/31 11:32:03;;;;;;;0.65;0.50;;;;;;;;;;7391030;19;20006;-79
2022/05/31 11:34:42;;;;;;;2.03;0.70;;;;;;;;;;7394880;19;20034;-79
2022/05/31 11:37:41;;;;;;;0.70;0.50;;;;;;;;;;7399399;19;20006;-79
2022/05/31 11:40:13;;;;;;;0.57;0.43;;;;;;;;;;7397100;19;20010;-79
2022/05/31 11:42:54;;;;;;;1.25;0.70;;;;;;;;;;7392885;19;20006;-79
2022/05/31 11:45:55;;;;;;;1.90;0.60;;;;;;;;;;7394506;19;20527;-79
2022/05/31 11:48:41;;;;;;;1.13;0.70;;;;;;;;;;7385525;19;20031;-80
2022/05/31 11:51:21;;;;;;;3.10;0.90;;;;;;;;;;7393529;19;20003;-79
2022/05/31 11:57:10;;;;;;;1.25;0.80;;;;;;;;;;7391978;19;20376;-82
2022/05/31 11:59:44;;;;;;;1.45;0.63;;;;;;;;;;7390937;19;20366;-80
2022/05/31 12:02:24;;;;;;;0.60;0.60;;;;;;;;;;7394502;19;20025;-80
2022/05/31 12:05:18;;;;;;;1.25;0.80;;;;;;;;;;7392197;19;20006;-79
2022/05/31 12:07:51;;;;;;;0.70;0.65;;;;;;;;;;7390803;19;20501;-80
2022/05/31 12:10:22;;;;;;;2.08;0.65;;;;;;;;;;7390430;19;20561;-79
2022/05/31 12:12:49;;;;;;;5.20;0.70;;;;;;;;;;7392200;19;20496;-79
2022/05/31 12:15:22;;;;;;;4.30;0.80;;;;;;;;;;7392008;19;20010;-79
2022/05/31 12:17:58;;;;;;;1.60;0.60;;;;;;;;;;7392171;19;20035;-79
2022/05/31 12:20:29;;;;;;;1.52;0.70;;;;;;;;;;7388747;19;20013;-78
2022/05/31 12:23:05;;;;;;;0.70;0.70;;;;;;;;;;7393112;19;20025;-78
2022/05/31 12:26:02;;;;;;;1.55;0.60;;;;;;;;;;7389477;19;20011;-79
2022/05/31 12:29:08;;;;;;;1.10;0.77;;;;;;;;;;7389115;19;20007;-78
2022/05/31 12:31:37;;;;;;;1.10;0.60;;;;;;;;;;7387154;19;20022;-79
2022/05/31 12:34:27;;;;;;;1.58;0.70;;;;;;;;;;7397827;19;20183;-79
2022/05/31 12:37:01;;;;;;;0.50;0.50;;;;;;;;;;7387079;19;20642;-79
2022/05/31 12:39:30;;;;;;;1.75;0.85;;;;;;;;;;7393879;19;20044;-80
2022/05/31 12:45:47;;;;;;;1.83;0.70;;;;;;;;;;7392771;19;20515;-79
2022/05/31 12:48:18;;;;;;;0.82;0.60;;;;;;;;;;7395324;19;20366;-79
2022/05/31 12:54:38;;;;;;;2.25;0.68;;;;;;;;;;7393492;19;20437;-78
2022/05/31 12:57:25;;;;;;;0.77;0.63;;;;;;;;;;7388689;19;20015;-80
2022/05/31 13:00:38;;;;;;;1.25;0.60;;;;;;;;;;7390747;19;20003;-79
2022/05/31 13:03:32;;;;;;;1.88;0.73;;;;;;;;;;7387665;19;20101;-79
2022/05/31 13:06:09;;;;;;;1.73;0.60;;;;;;;;;;7396265;19;22052;-78
2022/05/31 13:08:52;;;;;;;0.98;0.60;;;;;;;;;;7390912;19;20018;-78
2022/05/31 13:20:44;;;;;;;1.38;0.60;;;;;;;;;;7402971;19;20027;-78
2022/05/31 13:23:18;;;;;;;1.85;0.75;;;;;;;;;;7399201;19;20415;-79
2022/05/31 13:25:50;;;;;;;3.88;0.60;;;;;;;;;;7402189;19;20014;-79
2022/05/31 13:28:29;;;;;;;0.70;0.68;;;;;;;;;;7401355;19;20049;-78
2022/05/31 13:31:01;;;;;;;1.23;0.80;;;;;;;;;;7397448;19;20106;-78
2022/05/31 13:33:44;;;;;;;2.10;0.80;;;;;;;;;;7400897;19;20447;-79
2022/05/31 13:36:28;;;;;;;1.73;0.90;;;;;;;;;;7403040;19;20039;-79
2022/05/31 13:39:22;;;;;;;3.47;0.98;;;;;;;;;;7405277;19;20007;-79
2022/05/31 13:41:50;;;;;;;4.18;0.90;;;;;;;;;;7398032;19;20020;-77
2022/05/31 13:44:21;;;;;;;0.95;0.68;;;;;;;;;;7400996;19;20035;-76
2022/05/31 13:46:49;;;;;;;0.90;0.63;;;;;;;;;;7394124;19;20002;-75
2022/05/31 13:49:26;;;;;;;2.05;0.98;;;;;;;;;;7396897;19;20034;-82
2022/05/31 13:51:54;;;;;;;2.35;0.90;;;;;;;;;;7403569;19;19995;-81
2022/05/31 13:54:24;;;;;;;1.23;0.57;;;;;;;;;;7409695;19;20138;-79
2022/05/31 13:56:54;;;;;;;4.72;1.00;;;;;;;;;;7406353;19;20006;-79
2022/05/31 13:59:39;;;;;;;1.67;1.13;;;;;;;;;;7407592;19;20032;-78
2022/05/31 14:02:13;;;;;;;1.30;0.70;;;;;;;;;;7406772;19;20035;-79
2022/05/31 14:04:38;;;;;;;1.23;0.80;;;;;;;;;;7403413;19;20043;-78
2022/05/31 14:07:16;;;;;;;2.45;1.10;;;;;;;;;;7399056;19;20360;-76
2022/05/31 14:09:54;;;;;;;1.65;0.70;;;;;;;;;;7395523;19;20006;-79
2022/05/31 14:12:20;;;;;;;3.53;0.80;;;;;;;;;;7403603;19;20017;-79
2022/05/31 14:14:48;;;;;;;0.60;0.60;;;;;;;;;;7402150;19;20010;-78
2022/05/31 14:17:30;;;;;;;1.25;0.57;;;;;;;;;;7399479;19;20020;-77
2022/05/31 14:19:55;;;;;;;1.02;0.50;;;;;;;;;;7398294;19;20013;-76
2022/05/31 14:22:31;;;;;;;0.38;0.38;;;;;;;;;;7396402;19;20022;-75
2022/05/31 14:24:58;;;;;;;1.30;0.70;;;;;;;;;;7395502;19;20018;-77
2022/05/31 14:27:26;;;;;;;1.65;0.50;;;;;;;;;;7392695;19;20015;-75
2022/05/31 14:29:58;;;;;;;0.88;0.63;;;;;;;;;;7397729;19;20006;-75
2022/05/31 14:32:35;;;;;;;1.45;0.57;;;;;;;;;;7395460;19;20036;-75
2022/05/31 14:35:13;;;;;;;0.52;0.40;;;;;;;;;;7395258;19;20036;-76
2022/05/31 14:37:44;;;;;;;2.40;0.60;;;;;;;;;;7391801;19;20018;-75
2022/05/31 14:40:24;;;;;;;0.40;0.30;;;;;;;;;;7397836;19;20024;-76
2022/05/31 14:43:04;;;;;;;0.93;0.50;;;;;;;;;;7393695;19;20014;-75
2022/05/31 14:45:36;;;;;;;1.75;0.65;;;;;;;;;;7393224;19;20074;-75
2022/05/31 14:48:40;;;;;;;2.38;0.52;;;;;;;;;;7396157;19;20041;-74
2022/05/31 14:51:13;;;;;;;0.73;0.50;;;;;;;;;;7390549;19;20014;-75
2022/05/31 14:53:41;;;;;;;1.80;0.68;;;;;;;;;;7395762;19;20022;-74
2022/05/31 14:56:31;;;;;;;0.80;0.52;;;;;;;;;;7399676;19;20018;-75
2022/05/31 14:59:00;;;;;;;0.80;0.60;;;;;;;;;;7395970;19;20034;-75
2022/05/31 15:01:29;;;;;;;2.33;0.70;;;;;;;;;;7387527;19;20562;-76
2022/05/31 15:04:06;;;;;;;0.98;0.60;;;;;;;;;;7381575;19;20049;-75
2022/05/31 15:06:36;;;;;;;1.65;0.73;;;;;;;;;;7386665;19;21037;-75
2022/05/31 15:09:10;;;;;;;3.47;0.63;;;;;;;;;;7388570;19;20041;-75
2022/05/31 15:19:50;;;;;;;1.63;0.70;;;;;;;;;;7390980;19;20783;-76
2022/05/31 15:22:19;;;;;;;0.47;0.40;;;;;;;;;;7385228;19;20006;-75
2022/05/31 15:24:48;;;;;;;2.65;0.68;;;;;;;;;;7384156;19;20038;-77
2022/05/31 15:27:26;;;;;;;1.10;0.70;;;;;;;;;;7382001;19;20047;-76
2022/05/31 15:29:52;;;;;;;1.23;0.40;;;;;;;;;;7383416;19;20011;-76
2022/05/31 15:32:19;;;;;;;1.05;0.50;;;;;;;;;;7387052;19;20026;-76
2022/05/31 15:34:45;;;;;;;3.63;0.70;;;;;;;;;;7375607;19;20177;-76
2022/05/31 15:37:12;;;;;;;0.50;0.50;;;;;;;;;;7384055;19;20161;-77
2022/05/31 15:39:38;;;;;;;1.60;0.60;;;;;;;;;;7385552;19;20014;-75
2022/05/31 15:42:05;;;;;;;1.60;0.50;;;;;;;;;;7389127;19;20010;-77
2022/05/31 15:44:33;;;;;;;3.20;0.50;;;;;;;;;;7384807;19;20019;-76
2022/05/31 15:46:59;;;;;;;0.43;0.43;;;;;;;;;;7384604;19;20023;-76
2022/05/31 15:49:24;;;;;;;1.02;0.50;;;;;;;;;;7378943;19;20089;-77
2022/05/31 15:51:49;;;;;;;0.35;0.35;;;;;;;;;;7378847;19;20018;-76
2022/05/31 15:54:18;;;;;;;1.05;0.60;;;;;;;;;;7378382;19;20034;-76
2022/05/31 15:56:45;;;;;;;1.00;0.70;;;;;;;;;;7383585;19;20034;-76
2022/05/31 15:59:18;;;;;;;0.82;0.60;;;;;;;;;;7381130;19;20062;-76
2022/05/31 16:01:44;;;;;;;4.10;0.70;;;;;;;;;;7380734;19;20002;-78
2022/05/31 16:04:09;;;;;;;1.27;0.60;;;;;;;;;;7383129;19;20010;-77